Latest Weather Observations for Charlton

IDV60801

Issued at 3:22 pm EST Monday 20 May 2024 (issued every 10 minutes, with the page automatically refreshed every 10 minutes)

About weather observations | Map of weather stations | Latest weather observations for VIC | Other Formats
Station Details ID: 080128 Name: CHARLTON Lat: -36.28 Lon: 143.33 Height: 131.7 m
Data from the previous 72 hours. | See also: Recent months at Charlton
Date/Time
EST
Temp
°C
App
Temp
°C
Dew
Point
°C
Rel
Hum
%
Delta-T
°C
Wind Press
QNH
hPa
Press
MSL
hPa
Rain since
9am
mm
Dir  Spd
km/h
Gust
km/h
Spd
kts
Gust
kts
20/03:00pm 15.6 10.9 6.1 53 4.6 SE 20 28 11 15 1027.2 1027.2 0.0
20/02:30pm 15.9 11.7 5.8 51 4.9 SSE 17 30 9 16 1027.1 1027.1 0.0
20/02:00pm 15.7 11.2 5.9 52 4.7 SSE 19 30 10 16 1027.2 1027.2 0.0
20/01:30pm 15.6 11.6 6.6 55 4.4 SSE 17 30 9 16 1027.4 1027.4 0.0
20/01:00pm 14.9 10.9 6.5 57 4.1 SE 17 24 9 13 1027.6 1027.6 0.0
20/12:30pm 14.9 11.0 7.0 59 3.9 SSE 17 24 9 13 1027.9 1027.9 0.0
20/12:00pm 15.0 11.9 7.1 59 3.9 SSE 13 22 7 12 1028.2 1028.3 0.0
20/11:30am 15.3 11.6 7.8 61 3.8 SSE 17 28 9 15 1028.3 1028.4 0.0
20/11:00am 15.1 11.8 7.9 62 3.6 SSE 15 28 8 15 1028.4 1028.5 0.0
20/10:30am 13.7 10.7 7.9 68 2.9 S 13 19 7 10 1028.4 1028.5 0.0
20/10:00am 12.5 10.4 8.2 75 2.1 SSW 9 13 5 7 1028.3 1028.4 0.0
20/09:30am 10.7 8.5 7.9 83 1.4 SSW 9 15 5 8 1028.3 1028.4 0.0
20/09:00am 9.2 6.9 7.6 90 0.8 SW 9 15 5 8 1028.3 1028.4 0.0
20/08:30am 7.8 5.9 7.7 99 0.0 SW 7 13 4 7 1027.9 1027.9 0.0
20/08:00am 6.2 4.5 6.1 99 0.0 SSW 4 7 2 4 1027.6 1027.6 0.0
20/07:30am 6.0 3.9 5.9 99 0.0 SW 6 11 3 6 1027.3 1027.3 0.0
20/07:00am 6.3 4.1 6.2 99 0.0 SW 7 11 4 6 1026.9 1026.9 0.0
20/06:30am 6.5 5.2 6.1 97 0.2 SSW 2 6 1 3 1026.7 1026.7 0.0
20/06:00am 7.3 5.8 6.7 96 0.3 SW 4 9 2 5 1026.6 1026.6 0.0
20/05:30am 7.7 5.7 7.3 97 0.2 WSW 7 11 4 6 1026.4 1026.4 0.0
20/05:00am 7.9 5.6 7.3 96 0.3 WSW 9 19 5 10 1025.7 1025.8 0.0
20/04:30am 8.7 6.5 7.9 95 0.4 WSW 9 13 5 7 1025.6 1025.7 0.0
20/04:00am 9.0 6.9 8.2 95 0.4 WSW 9 15 5 8 1025.6 1025.7 0.0
20/03:30am 8.9 7.1 8.1 95 0.4 WSW 7 11 4 6 1025.6 1025.7 0.0
20/03:00am 9.1 7.3 8.0 93 0.5 WSW 7 11 4 6 1025.6 1025.7 0.0
20/02:30am 9.5 7.8 8.3 92 0.6 WSW 7 9 4 5 1025.6 1025.7 0.0
20/02:00am 9.8 8.2 8.6 92 0.6 WSW 7 15 4 8 1025.4 1025.5 0.0
20/01:30am 9.8 8.2 8.7 93 0.5 WSW 7 11 4 6 1025.4 1025.5 0.0
20/01:00am 9.8 8.4 8.9 94 0.4 SW 6 9 3 5 1025.3 1025.4 0.0
20/12:30am 9.8 7.9 8.9 94 0.4 WSW 9 13 5 7 1025.3 1025.4 0.0
20/12:00am 9.5 7.9 8.1 91 0.7 WSW 6 9 3 5 1025.4 1025.5 0.0
 
Date/Time
EST
Temp
°C
App
Temp
°C
Dew
Point
°C
Rel
Hum
%
Delta-T
°C
Wind Press
QNH
hPa
Press
MSL
hPa
Rain since
9am
mm
Dir  Spd
km/h
Gust
km/h
Spd
kts
Gust
kts
19/11:30pm 8.8 7.0 7.3 90 0.7 WSW 6 7 3 4 1025.4 1025.5 0.0
19/11:00pm 9.3 7.4 6.6 83 1.3 S 6 9 3 5 1025.5 1025.6 0.0
19/10:30pm 11.1 9.3 8.0 81 1.5 SSW 7 13 4 7 1025.6 1025.7 0.0
19/10:00pm 11.5 10.5 10.4 93 0.6 SW 6 9 3 5 1025.7 1025.8 0.0
19/09:30pm 11.5 10.1 10.9 96 0.3 SW 9 13 5 7 1025.8 1025.9 0.0
19/09:00pm 11.8 10.9 11.2 96 0.3 WSW 7 15 4 8 1025.5 1025.6 0.0
19/08:30pm 12.5 11.0 11.9 96 0.3 W 11 17 6 9 1025.4 1025.5 0.0
19/08:00pm 12.6 10.9 11.2 91 0.7 W 11 22 6 12 1025.3 1025.4 0.0
19/07:30pm 13.7 11.4 10.3 80 1.8 WSW 13 20 7 11 1025.2 1025.3 0.0
19/07:00pm 14.5 12.2 9.1 70 2.8 WSW 11 19 6 10 1025.1 1025.2 0.0
19/06:30pm 14.7 12.0 8.9 68 3.0 WSW 13 26 7 14 1024.8 1024.9 0.0
19/06:00pm 15.3 12.1 8.5 64 3.4 WSW 15 26 8 14 1024.6 1024.7 0.0
19/05:30pm 15.5 12.2 8.0 61 3.8 WSW 15 28 8 15 1024.4 1024.5 0.0
19/05:00pm 15.7 12.7 7.7 59 4.0 WSW 13 24 7 13 1024.4 1024.5 0.0
19/04:30pm 16.1 12.7 7.6 57 4.3 WSW 15 28 8 15 1024.4 1024.5 0.0
19/04:00pm 16.4 12.7 7.9 57 4.3 WSW 17 26 9 14 1024.2 1024.3 0.0
19/03:30pm 17.2 13.3 7.3 52 5.0 WSW 17 32 9 17 1024.3 1024.4 0.0
19/03:00pm 17.0 13.2 7.6 54 4.7 WSW 17 26 9 14 1024.3 1024.4 0.0
19/02:30pm 17.3 13.5 7.6 53 4.9 WSW 17 30 9 16 1024.5 1024.6 0.0
19/02:00pm 16.8 13.0 7.4 54 4.7 WSW 17 28 9 15 1024.9 1025.0 0.0
19/01:30pm 16.3 11.9 6.7 53 4.7 WSW 19 32 10 17 1025.0 1025.1 0.0
19/01:00pm 16.3 12.4 7.3 55 4.5 SW 17 28 9 15 1025.3 1025.4 0.0
19/12:30pm 15.1 11.9 6.9 58 4.0 WSW 13 26 7 14 1026.1 1026.2 0.0
19/12:00pm 15.0 11.4 6.6 57 4.1 WSW 15 24 8 13 1026.8 1026.8 0.0
19/11:30am 14.1 10.1 6.5 60 3.7 WSW 17 26 9 14 1027.3 1027.3 0.0
19/11:00am 13.0 8.9 6.4 64 3.1 WSW 17 28 9 15 1027.6 1027.6 0.0
19/10:30am 12.8 9.9 6.4 65 3.1 WSW 11 22 6 12 1027.8 1027.8 0.0
19/10:00am 11.6 7.9 6.3 70 2.5 WSW 15 22 8 12 1027.9 1027.9 0.0
19/09:30am 10.0 6.5 5.4 73 2.1 W 13 17 7 9 1027.9 1027.9 0.0
19/09:00am 7.6 5.2 4.2 79 1.5 NW 6 11 3 6 1028.2 1028.3 0.0
19/08:30am 6.2 3.1 3.5 83 1.1 NW 9 17 5 9 1028.1 1028.1 0.0
19/08:00am 4.7 1.4 2.4 85 0.9 WNW 9 13 5 7 1028.1 1028.1 0.0
19/07:30am 4.2 0.9 2.6 89 0.6 NW 9 15 5 8 1027.7 1027.7 0.0
19/07:00am 3.3 0.9 2.4 94 0.4 NW 4 7 2 4 1028.2 1028.3 0.0
19/06:30am 1.6 -1.4 1.0 96 0.2 NNW 6 9 3 5 1027.7 1027.7 0.0
19/06:00am 0.6 -2.1 0.0 96 0.2 NNW 4 7 2 4 1028.0 1028.0 0.0
19/05:30am 0.5 -1.6 -0.8 91 0.5 CALM 0 2 0 1 1028.1 1028.1 0.0
19/05:00am 0.6 -2.7 -1.3 87 0.7 WNW 6 9 3 5 1027.9 1027.9 0.0
19/04:30am 2.3 -0.7 1.0 91 0.5 WSW 6 9 3 5 1027.9 1027.9 0.0
19/04:00am 1.5 -1.5 1.1 97 0.2 W 6 9 3 5 1028.0 1028.0 0.0
19/03:30am 0.4 -1.6 -0.2 96 0.2 CALM 0 0 0 0 1028.3 1028.4 0.0
19/03:00am 0.1 -2.0 -1.0 92 0.4 CALM 0 0 0 0 1028.8 1028.9 0.0
19/02:30am 0.6 -1.5 -0.5 92 0.4 CALM 0 0 0 0 1028.8 1028.9 0.0
19/02:00am 0.8 -1.3 -0.6 90 0.5 CALM 0 6 0 3 1028.6 1028.7 0.0
19/01:30am 1.0 -1.8 -0.5 90 0.5 SW 4 7 2 4 1028.8 1028.9 0.0
19/01:00am 1.1 -1.0 -0.7 88 0.6 CALM 0 4 0 2 1029.0 1029.1 0.0
19/12:30am 0.8 -1.3 -1.0 88 0.6 CALM 0 6 0 3 1029.1 1029.2 0.0
19/12:00am 1.3 -0.7 -0.3 89 0.6 CALM 0 0 0 0 1029.2 1029.3 0.0
 
Date/Time
EST
Temp
°C
App
Temp
°C
Dew
Point
°C
Rel
Hum
%
Delta-T
°C
Wind Press
QNH
hPa
Press
MSL
hPa
Rain since
9am
mm
Dir  Spd
km/h
Gust
km/h
Spd
kts
Gust
kts
18/11:30pm 1.8 -0.2 -0.4 85 0.8 CALM 0 0 0 0 1029.2 1029.3 0.0
18/11:00pm 2.6 0.6 0.0 83 1.0 CALM 0 0 0 0 1029.4 1029.5 0.0
18/10:30pm 3.1 1.2 0.7 84 0.9 CALM 0 0 0 0 1029.8 1029.9 0.0
18/10:00pm 3.8 1.9 0.3 78 1.3 CALM 0 0 0 0 1029.9 1030.0 0.0
18/09:30pm 4.3 2.3 -0.1 73 1.7 CALM 0 0 0 0 1030.1 1030.2 0.0
18/09:00pm 4.6 1.8 -0.4 70 1.9 SSW 4 7 2 4 1030.5 1030.6 0.0
18/08:30pm 5.9 2.8 0.0 66 2.3 SSW 6 9 3 5 1030.3 1030.4 0.0
18/08:00pm 5.5 2.4 -0.1 67 2.1 SSW 6 7 3 4 1030.2 1030.3 0.0
18/07:30pm 5.7 3.1 -1.7 59 2.7 S 2 9 1 5 1030.3 1030.4 0.0
18/07:00pm 7.3 4.3 0.5 62 2.7 SSW 6 7 3 4 1030.1 1030.2 0.0
18/06:30pm 8.2 6.0 0.9 60 3.0 SW 2 7 1 4 1030.0 1030.1 0.0
18/06:00pm 8.9 6.6 0.4 55 3.4 S 2 6 1 3 1030.0 1030.1 0.0
18/05:30pm 10.6 7.4 -0.2 47 4.4 S 6 6 3 3 1029.9 1030.0 0.0
18/05:00pm 12.8 9.5 0.2 42 5.2 S 7 13 4 7 1030.1 1030.2 0.0
18/04:30pm 13.9 9.9 0.2 39 5.8 S 11 17 6 9 1030.3 1030.4 0.0
18/04:00pm 14.5 10.9 0.7 39 5.9 S 9 17 5 9 1030.4 1030.5 0.0
18/03:30pm 14.5 10.9 0.4 38 6.0 S 9 15 5 8 1030.5 1030.6 0.0
18/03:00pm 14.9 10.6 1.1 39 6.0 SSE 13 22 7 12 1030.7 1030.8 0.0
18/02:30pm 14.8 10.1 0.6 38 6.1 SSE 15 24 8 13 1030.8 1030.9 0.0
18/02:00pm 14.7 10.3 0.2 37 6.1 S 13 22 7 12 1031.2 1031.3 0.0
18/01:30pm 14.8 10.4 0.6 38 6.1 SSE 13 24 7 13 1031.4 1031.5 0.0
18/01:00pm 13.9 9.1 0.2 39 5.7 SSE 15 24 8 13 1031.7 1031.8 0.0
18/12:30pm 13.9 9.6 0.9 41 5.6 SSE 13 20 7 11 1032.1 1032.2 0.0
18/12:00pm 13.5 8.5 1.2 43 5.2 SSE 17 24 9 13 1032.3 1032.4 0.0
18/11:30am 12.8 7.8 1.5 46 4.9 SSE 17 30 9 16 1033.0 1033.1 0.0
18/11:00am 12.0 6.7 1.9 50 4.3 SSE 19 35 10 19 1033.0 1033.1 0.0
18/10:30am 11.9 7.2 3.2 55 3.9 SSE 17 28 9 15 1033.4 1033.5 0.0
18/10:00am 10.5 5.8 3.1 60 3.2 SSE 17 26 9 14 1033.0 1033.1 0.0
18/09:30am 9.2 6.3 4.4 72 2.1 S 9 17 5 9 1033.0 1033.1 0.0
18/09:00am 7.4 4.3 3.6 77 1.6 SSW 9 17 5 9 1033.2 1033.3 0.0
18/08:30am 6.1 3.4 3.8 85 1.0 SSW 7 11 4 6 1033.1 1033.2 0.0
18/08:00am 4.4 2.2 3.2 92 0.5 S 4 7 2 4 1032.8 1032.9 0.0
18/07:30am 4.3 1.6 2.8 90 0.6 SSW 6 9 3 5 1032.4 1032.5 0.0
18/07:00am 3.7 1.0 2.5 92 0.5 SW 6 9 3 5 1032.2 1032.3 0.0
18/06:30am 5.2 2.4 3.1 86 0.9 SSW 7 11 4 6 1031.8 1031.9 0.0
18/06:00am 5.3 2.2 3.5 88 0.7 SW 9 15 5 8 1031.5 1031.6 0.0
18/05:30am 4.2 1.1 3.5 95 0.3 WSW 9 15 5 8 1031.5 1031.6 0.0
18/05:00am 3.8 2.3 2.8 93 0.4 CALM 0 7 0 4 1031.1 1031.2 0.0
18/04:30am 5.5 2.8 3.8 89 0.7 SSW 7 11 4 6 1031.3 1031.4 0.0
18/04:00am 5.6 3.1 4.6 93 0.4 S 7 15 4 8 1031.0 1031.1 0.0
18/03:30am 4.5 2.7 3.6 94 0.4 W 2 9 1 5 1030.7 1030.8 0.0
18/03:00am 4.9 2.3 3.4 90 0.6 W 6 7 3 4 1031.0 1031.1 0.0
18/02:30am 6.1 3.5 4.3 88 0.8 SW 7 11 4 6 1031.0 1031.1 0.0
18/02:00am 6.5 3.9 4.2 85 1.0 SSW 7 13 4 7 1030.9 1031.0 0.0
18/01:30am 6.4 3.8 4.4 87 0.9 SSW 7 11 4 6 1031.1 1031.2 0.0
18/01:00am 5.9 3.3 3.1 82 1.2 SW 6 9 3 5 1031.0 1031.1 0.0
18/12:30am 6.7 4.0 3.5 80 1.4 SSW 7 11 4 6 1031.1 1031.2 0.0
18/12:00am 6.6 3.9 3.6 81 1.3 SSW 7 11 4 6 1031.0 1031.1 0.0
 
Date/Time
EST
Temp
°C
App
Temp
°C
Dew
Point
°C
Rel
Hum
%
Delta-T
°C
Wind Press
QNH
hPa
Press
MSL
hPa
Rain since
9am
mm
Dir  Spd
km/h
Gust
km/h
Spd
kts
Gust
kts
17/11:30pm 6.8 3.6 3.2 78 1.5 SSW 9 11 5 6 1031.0 1031.1 0.0
17/11:00pm 7.9 5.2 3.9 76 1.7 SSW 7 11 4 6 1030.9 1031.0 0.0
17/10:30pm 6.6 3.8 3.4 80 1.4 SSW 7 9 4 5 1030.6 1030.7 0.0
17/10:00pm 7.8 5.3 4.6 80 1.4 SSW 7 11 4 6 1030.4 1030.5 0.0
17/09:30pm 8.3 5.8 4.5 77 1.7 S 7 13 4 7 1030.4 1030.5 0.0
17/09:00pm 9.8 7.7 6.0 77 1.7 S 6 11 3 6 1030.4 1030.5 0.0
17/08:30pm 10.4 8.2 6.2 75 2.0 S 7 9 4 5 1029.9 1030.0 0.0
17/08:00pm 11.5 9.5 7.0 74 2.1 S 7 11 4 6 1029.5 1029.6 0.0
17/07:30pm 13.0 10.4 7.9 71 2.5 SSE 11 17 6 9 1029.3 1029.4 0.0
17/07:00pm 13.1 10.6 8.0 71 2.5 SSE 11 19 6 10 1028.9 1029.0 0.0
17/06:30pm 13.0 10.1 8.1 72 2.4 SSE 13 20 7 11 1028.5 1028.6 0.0
17/06:00pm 13.6 9.5 7.8 68 2.9 SSE 19 32 10 17 1028.1 1028.1 0.0
17/05:30pm 15.6 13.0 7.6 59 4.0 S 11 24 6 13 1027.6 1027.6 0.0
17/05:00pm 16.7 14.3 7.1 53 4.8 S 9 20 5 11 1027.2 1027.2 0.0
17/04:30pm 17.3 14.6 7.4 52 5.0 SSW 11 20 6 11 1026.9 1026.9 0.0
17/04:00pm 18.7 16.1 7.8 49 5.6 SW 11 26 6 14 1026.8 1026.8 0.0
17/03:30pm 18.6 15.2 7.7 49 5.6 SW 15 24 8 13 1026.5 1026.5 0.0

Other formats

Comma delimited format used in spreadsheet applications
http://www.bom.gov.au/fwo/IDV60801/IDV60801.94839.axf

JavaScript Object Notation format (JSON) in row-major order
http://www.bom.gov.au/fwo/IDV60801/IDV60801.94839.json

Data quality

Most of these data are generated automatically and are frequently updated. Quality checks on data are not normally performed. It is possible for incorrect values to appear. Refer to information at About Latest Weather Observations and please check the disclaimer before using these data.